Time;durP1;ratioP1;P1;durP2;ratioP2;P2;SDS_P1;SDS_P2;PMS_P1;PMS_P2;Temp;Humidity;BMP_temperature;BMP_pressure;BME280_temperature;BME280_humidity;BME280_pressure;Samples;Min_cycle;Max_cycle;Signal;HPM_P1;HPM_P2
2021/09/16 00:01:09;;;;;;;44.13;20.60;;;19.50;99.90;;;;;;4989836;28;20985;-64
2021/09/16 00:03:35;;;;;;;36.92;21.33;;;19.40;99.90;;;;;;4988431;28;20053;-64
2021/09/16 00:06:00;;;;;;;31.77;18.05;;;19.30;99.90;;;;;;4987826;28;20034;-65
2021/09/16 00:08:26;;;;;;;33.83;19.70;;;19.30;99.90;;;;;;4989024;28;20108;-65
2021/09/16 00:10:51;;;;;;;26.73;16.52;;;19.20;99.90;;;;;;4987706;28;20034;-64
2021/09/16 00:13:17;;;;;;;31.52;18.60;;;19.20;99.90;;;;;;4988447;28;20038;-64
2021/09/16 00:15:42;;;;;;;31.52;19.27;;;19.20;99.90;;;;;;4990758;28;20037;-65
2021/09/16 00:18:07;;;;;;;30.65;18.35;;;19.20;99.90;;;;;;4990694;28;20064;-64
2021/09/16 00:20:33;;;;;;;36.95;20.55;;;19.20;99.90;;;;;;4987274;28;20034;-64
2021/09/16 00:22:58;;;;;;;35.28;18.98;;;19.20;99.90;;;;;;4991978;28;20509;-64
2021/09/16 00:25:24;;;;;;;28.17;17.65;;;19.20;99.90;;;;;;4989517;28;20218;-64
2021/09/16 00:27:49;;;;;;;31.77;17.25;;;19.30;99.90;;;;;;4991883;28;20508;-64
2021/09/16 00:30:15;;;;;;;33.90;18.73;;;19.20;99.90;;;;;;4988439;28;20048;-64
2021/09/16 00:32:40;;;;;;;24.85;15.40;;;19.50;99.90;;;;;;4991839;28;20077;-64
2021/09/16 00:35:06;;;;;;;27.65;17.02;;;19.10;99.90;;;;;;4989820;28;20735;-64
2021/09/16 00:37:31;;;;;;;31.50;16.90;;;19.20;99.90;;;;;;4987329;28;20034;-64
2021/09/16 00:39:57;;;;;;;27.80;15.82;;;19.20;99.90;;;;;;4992004;28;20034;-64
2021/09/16 00:42:22;;;;;;;22.50;16.35;;;19.20;99.90;;;;;;4987817;28;20049;-64
2021/09/16 00:44:48;;;;;;;26.42;14.77;;;19.10;99.90;;;;;;4989016;28;20038;-64
2021/09/16 00:47:13;;;;;;;24.90;15.05;;;19.60;99.90;;;;;;4989467;28;20255;-64
2021/09/16 00:49:39;;;;;;;22.25;14.63;;;19.20;99.90;;;;;;4988084;28;20033;-64
2021/09/16 00:52:04;;;;;;;20.23;13.50;;;19.10;99.90;;;;;;4988066;28;20034;-64
2021/09/16 00:54:29;;;;;;;20.10;14.10;;;19.10;99.90;;;;;;4988035;28;20042;-64
2021/09/16 00:56:55;;;;;;;27.02;15.27;;;19.10;99.90;;;;;;4989162;28;20034;-64
2021/09/16 00:59:20;;;;;;;19.45;12.55;;;19.10;99.90;;;;;;4984991;28;20034;-64
2021/09/16 01:01:46;;;;;;;21.80;13.27;;;19.10;99.90;;;;;;4990411;28;20030;-64
2021/09/16 01:04:11;;;;;;;22.33;13.10;;;19.10;99.90;;;;;;4989300;28;20918;-64
2021/09/16 01:06:37;;;;;;;22.92;14.60;;;19.20;99.90;;;;;;4987492;28;20120;-64
2021/09/16 01:09:02;;;;;;;21.20;14.20;;;19.20;99.90;;;;;;4988612;28;20104;-64
2021/09/16 01:11:28;;;;;;;23.23;14.98;;;19.00;99.90;;;;;;4987844;28;20034;-64
2021/09/16 01:13:53;;;;;;;22.90;14.43;;;19.00;99.90;;;;;;4993799;28;20034;-64
2021/09/16 01:16:19;;;;;;;17.95;12.85;;;18.90;99.90;;;;;;4990126;28;20486;-64
2021/09/16 01:18:44;;;;;;;22.08;14.02;;;19.00;99.90;;;;;;4989695;28;20038;-64
2021/09/16 01:21:10;;;;;;;21.27;14.75;;;18.20;99.90;;;;;;4992914;28;20045;-64
2021/09/16 01:23:35;;;;;;;18.02;11.52;;;19.20;99.90;;;;;;4985517;28;20834;-64
2021/09/16 01:26:01;;;;;;;21.58;13.82;;;19.00;99.90;;;;;;4991019;28;20030;-64
2021/09/16 01:28:26;;;;;;;20.42;13.48;;;19.00;99.90;;;;;;4987998;28;20045;-64
2021/09/16 01:30:52;;;;;;;23.45;14.20;;;19.00;99.90;;;;;;4989698;28;20089;-64
2021/09/16 01:33:17;;;;;;;16.92;12.75;;;18.90;99.90;;;;;;4995094;28;20500;-64
2021/09/16 01:35:43;;;;;;;29.13;16.42;;;19.00;99.90;;;;;;4991692;28;20022;-64
2021/09/16 01:38:08;;;;;;;22.45;13.55;;;19.00;99.90;;;;;;4993532;28;20060;-64
2021/09/16 01:40:34;;;;;;;25.10;14.75;;;19.00;99.90;;;;;;4993203;28;20037;-64
2021/09/16 01:42:59;;;;;;;23.38;13.90;;;18.90;99.90;;;;;;4991094;28;20038;-64
2021/09/16 01:45:25;;;;;;;18.55;13.40;;;18.90;99.90;;;;;;4992020;28;20038;-64
2021/09/16 01:47:50;;;;;;;25.45;16.25;;;19.20;99.90;;;;;;4990347;28;20767;-64
2021/09/16 01:50:15;;;;;;;28.30;15.98;;;19.20;99.90;;;;;;4990568;28;20033;-64
2021/09/16 01:52:41;;;;;;;26.65;16.95;;;18.80;99.90;;;;;;4991998;28;20033;-64
2021/09/16 01:55:06;;;;;;;27.40;17.45;;;18.80;99.90;;;;;;4990439;28;20368;-64
2021/09/16 01:57:32;;;;;;;30.65;18.13;;;19.10;99.90;;;;;;4990372;28;20033;-64
2021/09/16 01:59:57;;;;;;;26.17;16.42;;;18.70;99.90;;;;;;4991261;28;20038;-64
2021/09/16 02:02:23;;;;;;;29.90;18.15;;;18.70;99.90;;;;;;4991212;28;20061;-64
2021/09/16 02:04:48;;;;;;;30.55;18.65;;;18.60;99.90;;;;;;4991945;28;20037;-64
2021/09/16 02:07:14;;;;;;;29.13;18.55;;;18.60;99.90;;;;;;4990330;28;20025;-64
2021/09/16 02:09:39;;;;;;;32.63;19.15;;;18.70;99.90;;;;;;4990362;28;20034;-64
2021/09/16 02:12:05;;;;;;;31.63;18.48;;;18.60;99.90;;;;;;4992729;28;20042;-64
2021/09/16 02:14:30;;;;;;;38.10;21.88;;;18.60;99.90;;;;;;4989054;28;20065;-64
2021/09/16 02:16:56;;;;;;;33.22;21.30;;;18.60;99.90;;;;;;4990851;28;20038;-64
2021/09/16 02:19:21;;;;;;;35.00;19.88;;;18.50;99.90;;;;;;4992735;28;20143;-64
2021/09/16 02:21:47;;;;;;;39.67;20.42;;;18.60;99.90;;;;;;4992041;28;20034;-64
2021/09/16 02:24:12;;;;;;;30.50;18.83;;;18.70;99.90;;;;;;4991309;28;20049;-64
2021/09/16 02:26:37;;;;;;;36.72;20.52;;;18.50;99.90;;;;;;4990261;28;20045;-64
2021/09/16 02:29:03;;;;;;;43.78;24.08;;;18.50;99.90;;;;;;4991413;28;20038;-64
2021/09/16 02:31:28;;;;;;;32.83;19.65;;;18.50;99.90;;;;;;4990172;28;20117;-64
2021/09/16 02:33:54;;;;;;;45.45;22.77;;;18.40;99.90;;;;;;4989148;28;20744;-64
2021/09/16 02:36:19;;;;;;;40.33;23.85;;;18.40;99.90;;;;;;4991916;28;20077;-64
2021/09/16 02:38:45;;;;;;;42.65;25.60;;;18.50;99.90;;;;;;4991195;28;20042;-64
2021/09/16 02:41:10;;;;;;;38.13;21.63;;;18.60;99.90;;;;;;4990858;28;20092;-64
2021/09/16 02:43:36;;;;;;;40.45;22.60;;;18.50;99.90;;;;;;4989396;28;20144;-64
2021/09/16 02:46:01;;;;;;;41.25;23.83;;;18.50;99.90;;;;;;4990720;28;20482;-64
2021/09/16 02:48:27;;;;;;;43.50;22.90;;;19.00;99.90;;;;;;4992631;28;20036;-64
2021/09/16 02:50:52;;;;;;;41.83;24.10;;;18.30;99.90;;;;;;4989093;28;20434;-64
2021/09/16 02:53:18;;;;;;;47.08;24.65;;;18.60;99.90;;;;;;4991717;28;20076;-64
2021/09/16 02:55:43;;;;;;;45.72;24.55;;;18.60;99.90;;;;;;4988741;28;20037;-64
2021/09/16 02:58:09;;;;;;;38.95;22.52;;;18.60;99.90;;;;;;4988547;28;20030;-64
2021/09/16 03:00:34;;;;;;;46.22;24.40;;;18.60;99.90;;;;;;4990847;28;20581;-64
2021/09/16 03:03:00;;;;;;;37.88;21.58;;;18.60;99.90;;;;;;4990440;28;20029;-64
2021/09/16 03:05:25;;;;;;;36.97;20.55;;;18.60;99.90;;;;;;4988908;28;20502;-64
2021/09/16 03:07:51;;;;;;;38.88;23.52;;;18.60;99.90;;;;;;4990777;28;20471;-64
2021/09/16 03:10:16;;;;;;;42.40;24.48;;;18.60;99.90;;;;;;4991535;28;20034;-64
2021/09/16 03:12:42;;;;;;;40.20;23.52;;;18.60;99.90;;;;;;4989295;28;20853;-64
2021/09/16 03:15:07;;;;;;;39.88;23.70;;;18.70;99.90;;;;;;4990605;28;20037;-64
2021/09/16 03:17:33;;;;;;;43.63;23.88;;;18.90;99.90;;;;;;4991098;28;20045;-64
2021/09/16 03:19:58;;;;;;;39.47;22.83;;;18.70;99.90;;;;;;4989176;28;20034;-65
2021/09/16 03:22:24;;;;;;;48.10;25.00;;;18.60;99.90;;;;;;4984056;28;20038;-64
2021/09/16 03:24:49;;;;;;;46.08;24.73;;;18.60;99.90;;;;;;4989217;28;20026;-64
2021/09/16 03:27:15;;;;;;;38.92;23.73;;;18.50;99.90;;;;;;4990740;28;20061;-65
2021/09/16 03:29:40;;;;;;;42.47;24.60;;;18.50;99.90;;;;;;4990422;28;20132;-64
2021/09/16 03:32:06;;;;;;;41.08;23.23;;;18.50;99.90;;;;;;4991324;28;20034;-65
2021/09/16 03:34:31;;;;;;;39.08;22.83;;;18.50;99.90;;;;;;4988083;28;20521;-65
2021/09/16 03:36:57;;;;;;;40.17;22.70;;;18.70;99.90;;;;;;4990287;28;20031;-64
2021/09/16 03:39:22;;;;;;;39.40;22.40;;;19.00;99.90;;;;;;4989957;28;20041;-64
2021/09/16 03:41:48;;;;;;;50.55;27.00;;;18.50;99.90;;;;;;4990894;28;20030;-64
2021/09/16 03:44:13;;;;;;;50.25;25.95;;;18.60;99.90;;;;;;4995267;28;20037;-64
2021/09/16 03:46:38;;;;;;;38.35;22.42;;;18.50;99.90;;;;;;4994058;28;20040;-64
2021/09/16 03:49:04;;;;;;;41.13;24.30;;;18.40;99.90;;;;;;4999285;28;20034;-65
2021/09/16 03:51:29;;;;;;;37.38;22.75;;;18.60;99.90;;;;;;4994695;28;20037;-64
2021/09/16 03:53:55;;;;;;;36.42;21.67;;;18.40;99.90;;;;;;4992016;28;20100;-64
2021/09/16 03:56:20;;;;;;;34.38;20.33;;;18.40;99.90;;;;;;4990896;28;20034;-64
2021/09/16 03:58:46;;;;;;;36.33;20.48;;;18.30;99.90;;;;;;4987846;28;20764;-64
2021/09/16 04:01:12;;;;;;;37.58;21.90;;;18.30;99.90;;;;;;4989982;28;20048;-64
2021/09/16 04:03:37;;;;;;;36.95;20.98;;;18.30;99.90;;;;;;4989097;28;20030;-64
2021/09/16 04:06:03;;;;;;;27.80;17.98;;;18.30;99.90;;;;;;4994163;28;20097;-64
2021/09/16 04:08:28;;;;;;;33.53;20.95;;;18.40;99.90;;;;;;4993859;28;20068;-64
2021/09/16 04:10:54;;;;;;;32.00;19.60;;;18.20;99.90;;;;;;4992764;28;20095;-64
2021/09/16 04:13:19;;;;;;;27.35;17.92;;;18.20;99.90;;;;;;4992564;28;20055;-64
2021/09/16 04:15:45;;;;;;;29.77;18.63;;;18.30;99.90;;;;;;4992180;28;20706;-64
2021/09/16 04:18:10;;;;;;;32.08;19.35;;;18.30;99.90;;;;;;4994411;28;20105;-64
2021/09/16 04:20:36;;;;;;;35.67;16.52;;;18.20;99.90;;;;;;4992007;28;20143;-64
2021/09/16 04:23:01;;;;;;;27.20;15.85;;;18.10;99.90;;;;;;4989430;28;20070;-64
2021/09/16 04:25:26;;;;;;;25.05;16.02;;;18.10;99.90;;;;;;4997004;28;20141;-64
2021/09/16 04:27:52;;;;;;;23.50;15.70;;;18.00;99.90;;;;;;4991430;28;20088;-64
2021/09/16 04:30:18;;;;;;;27.52;14.20;;;17.90;99.90;;;;;;4991124;28;20066;-64
2021/09/16 04:32:43;;;;;;;29.98;14.55;;;17.90;99.90;;;;;;4990152;28;20038;-64
2021/09/16 04:35:09;;;;;;;22.15;12.43;;;17.80;99.90;;;;;;4990940;28;20124;-64
2021/09/16 04:37:34;;;;;;;17.17;10.98;;;17.80;99.90;;;;;;4992698;28;20042;-65
2021/09/16 04:40:00;;;;;;;20.17;11.85;;;17.70;99.90;;;;;;4993807;28;20034;-64
2021/09/16 04:42:25;;;;;;;18.60;10.60;;;17.70;99.90;;;;;;4993136;28;20151;-64
2021/09/16 04:44:50;;;;;;;14.57;9.93;;;17.60;99.90;;;;;;4991089;28;20114;-64
2021/09/16 04:47:16;;;;;;;17.45;9.65;;;17.60;99.90;;;;;;4990221;28;20062;-64
2021/09/16 04:49:41;;;;;;;17.30;9.82;;;17.60;99.90;;;;;;4991607;28;20034;-64
2021/09/16 04:52:07;;;;;;;16.08;8.85;;;17.70;99.90;;;;;;4991617;28;20030;-64
2021/09/16 04:54:33;;;;;;;15.77;8.35;;;17.60;99.90;;;;;;4995512;28;20037;-64
2021/09/16 04:56:58;;;;;;;18.52;9.73;;;17.30;99.90;;;;;;4992314;28;20052;-64
2021/09/16 04:59:23;;;;;;;19.75;10.02;;;17.20;99.90;;;;;;4998073;28;20030;-64
2021/09/16 05:01:49;;;;;;;16.00;9.95;;;17.20;99.90;;;;;;4995515;28;20130;-67
2021/09/16 05:04:15;;;;;;;20.95;9.93;;;17.20;99.90;;;;;;4990612;28;20081;-67
2021/09/16 05:07:05;;;;;;;16.95;9.10;;;17.20;99.90;;;;;;4990995;28;20128;-67
2021/09/16 05:09:31;;;;;;;14.43;9.32;;;17.30;99.90;;;;;;4997160;28;20093;-67
2021/09/16 05:11:56;;;;;;;17.00;9.63;;;17.10;99.90;;;;;;4992940;28;20029;-67
2021/09/16 05:14:21;;;;;;;15.88;9.40;;;17.20;99.90;;;;;;4992634;28;21012;-67
2021/09/16 05:16:47;;;;;;;13.25;9.02;;;17.00;99.90;;;;;;4971686;28;20045;-67
2021/09/16 05:19:12;;;;;;;19.40;10.00;;;17.00;99.90;;;;;;4994602;28;20026;-67
2021/09/16 05:21:38;;;;;;;17.92;11.30;;;16.90;99.90;;;;;;4989431;28;20038;-67
2021/09/16 05:24:04;;;;;;;17.02;10.15;;;16.90;99.90;;;;;;4990171;28;20030;-67
2021/09/16 05:26:29;;;;;;;16.17;10.73;;;16.90;99.90;;;;;;4991241;28;20526;-67
2021/09/16 05:28:55;;;;;;;18.30;10.80;;;16.90;99.90;;;;;;4973627;28;20045;-67
2021/09/16 05:31:20;;;;;;;20.35;11.32;;;16.90;99.90;;;;;;4986653;28;20043;-67
2021/09/16 05:33:46;;;;;;;22.38;12.68;;;16.90;99.90;;;;;;4988584;28;20026;-67
2021/09/16 05:36:11;;;;;;;20.75;11.40;;;16.90;99.90;;;;;;4992000;28;20486;-67
2021/09/16 05:38:37;;;;;;;18.70;11.05;;;17.00;99.90;;;;;;4996526;28;20083;-67
2021/09/16 05:41:03;;;;;;;17.65;10.05;;;17.10;99.90;;;;;;4990728;28;20038;-67
2021/09/16 05:43:28;;;;;;;16.63;10.88;;;17.10;99.90;;;;;;4990396;28;20034;-67
2021/09/16 05:45:54;;;;;;;27.08;11.52;;;17.10;99.90;;;;;;4995040;28;20589;-67
2021/09/16 05:48:20;;;;;;;16.70;11.65;;;17.10;99.90;;;;;;4990835;28;20108;-67
2021/09/16 05:50:46;;;;;;;17.40;10.63;;;17.20;99.90;;;;;;4989768;28;20049;-67
2021/09/16 05:53:11;;;;;;;18.73;10.93;;;17.50;99.90;;;;;;4995905;28;20030;-68
2021/09/16 05:55:39;;;;;;;15.15;9.32;;;17.20;99.90;;;;;;4989371;28;20057;-66
2021/09/16 05:58:04;;;;;;;20.13;12.88;;;17.20;99.90;;;;;;4984728;28;20486;-66
2021/09/16 06:00:30;;;;;;;15.27;9.80;;;17.40;99.90;;;;;;4992223;28;20034;-66
2021/09/16 06:02:55;;;;;;;16.38;10.18;;;17.60;99.90;;;;;;4989896;28;20498;-66
2021/09/16 06:05:21;;;;;;;16.00;9.13;;;17.50;99.90;;;;;;4989741;28;20076;-66
2021/09/16 06:07:46;;;;;;;17.98;8.57;;;17.40;99.90;;;;;;4991552;28;20125;-66
2021/09/16 06:10:12;;;;;;;15.50;9.10;;;17.50;99.90;;;;;;4992307;28;20552;-66
2021/09/16 06:12:37;;;;;;;13.90;8.55;;;17.90;99.90;;;;;;4991332;28;20029;-66
2021/09/16 06:15:28;;;;;;;11.05;7.95;;;17.50;99.90;;;;;;4991657;28;20053;-66
2021/09/16 06:20:37;;;;;;;20.38;7.88;;;17.60;99.90;;;;;;5581166;23;20197;-64
2021/09/16 06:23:03;;;;;;;11.00;7.10;;;17.60;99.90;;;;;;4999181;28;21100;-65
2021/09/16 06:25:28;;;;;;;15.48;7.20;;;17.60;99.90;;;;;;4993821;28;20053;-65
2021/09/16 06:27:54;;;;;;;15.65;7.30;;;17.60;99.90;;;;;;4996117;28;20045;-66
2021/09/16 06:30:19;;;;;;;11.52;7.05;;;17.60;99.90;;;;;;4988026;28;20045;-66
2021/09/16 06:32:45;;;;;;;12.35;5.90;;;17.60;99.90;;;;;;4983045;28;20584;-66
2021/09/16 06:35:11;;;;;;;8.90;5.75;;;17.70;99.90;;;;;;4983121;28;20030;-66
2021/09/16 06:37:36;;;;;;;10.05;6.10;;;17.80;99.90;;;;;;4981123;28;20109;-66
2021/09/16 06:40:02;;;;;;;7.47;5.22;;;17.80;99.90;;;;;;4983747;28;20683;-66
2021/09/16 06:42:27;;;;;;;16.02;6.13;;;18.30;99.90;;;;;;4981435;28;20042;-66
2021/09/16 06:44:53;;;;;;;11.95;5.65;;;17.90;99.90;;;;;;4981007;28;20042;-66
2021/09/16 06:47:18;;;;;;;10.07;5.30;;;18.10;99.90;;;;;;4982139;28;20047;-66
2021/09/16 06:49:48;;;;;;;10.43;4.70;;;18.10;99.90;;;;;;4985037;28;20054;-66
2021/09/16 06:52:13;;;;;;;10.05;4.47;;;18.20;99.90;;;;;;4978167;28;20034;-65
2021/09/16 06:54:39;;;;;;;4.78;3.75;;;18.40;99.90;;;;;;4978072;28;20039;-66
2021/09/16 06:57:04;;;;;;;5.45;3.53;;;18.30;99.90;;;;;;4980451;28;20037;-66
2021/09/16 06:59:30;;;;;;;8.40;4.60;;;18.50;99.90;;;;;;4979455;28;20069;-66
2021/09/16 07:01:55;;;;;;;8.50;3.50;;;18.30;99.90;;;;;;4978882;28;20060;-66
2021/09/16 07:04:21;;;;;;;9.57;3.70;;;18.30;99.90;;;;;;4978468;28;20573;-66
2021/09/16 07:06:46;;;;;;;9.45;4.60;;;18.40;99.90;;;;;;4979876;28;20073;-66
2021/09/16 07:09:12;;;;;;;14.07;4.05;;;18.40;99.90;;;;;;4978658;28;20608;-66
2021/09/16 07:11:37;;;;;;;8.18;3.22;;;18.50;99.90;;;;;;4979822;28;20103;-66
2021/09/16 07:14:03;;;;;;;7.65;3.13;;;18.50;99.90;;;;;;4980031;28;20114;-66
2021/09/16 07:16:28;;;;;;;6.82;2.80;;;18.50;99.90;;;;;;4979971;28;20545;-66
2021/09/16 07:18:53;;;;;;;6.75;2.97;;;18.60;99.90;;;;;;4979261;28;20449;-66
2021/09/16 07:21:19;;;;;;;7.95;3.03;;;18.70;99.90;;;;;;4977844;28;20066;-66
2021/09/16 07:23:44;;;;;;;5.95;2.33;;;18.90;99.90;;;;;;4980150;28;20041;-66
2021/09/16 07:26:10;;;;;;;6.30;2.25;;;18.90;99.90;;;;;;4980624;28;20371;-66
2021/09/16 07:28:37;;;;;;;6.53;2.55;;;19.10;99.90;;;;;;4977580;28;20034;-66
2021/09/16 07:31:03;;;;;;;4.25;2.58;;;18.90;99.90;;;;;;4981117;28;20140;-66
2021/09/16 07:33:28;;;;;;;7.75;3.08;;;19.00;99.90;;;;;;4979628;28;20748;-66
2021/09/16 07:35:54;;;;;;;5.95;3.20;;;19.10;99.90;;;;;;4977604;28;20041;-66
2021/09/16 07:38:19;;;;;;;3.85;2.47;;;19.20;99.90;;;;;;4979226;28;20027;-66
2021/09/16 07:40:45;;;;;;;7.07;2.92;;;19.20;99.90;;;;;;4976181;28;20600;-66
2021/09/16 07:43:10;;;;;;;4.32;2.70;;;19.20;99.90;;;;;;4978968;28;20034;-66
2021/09/16 07:45:36;;;;;;;4.13;2.38;;;19.20;99.90;;;;;;4979469;28;20051;-66
2021/09/16 07:48:01;;;;;;;6.43;2.25;;;19.30;99.90;;;;;;4984949;28;20596;-66
2021/09/16 07:50:27;;;;;;;4.95;2.28;;;19.30;99.90;;;;;;4977580;28;20038;-65
2021/09/16 07:52:52;;;;;;;6.15;2.30;;;19.30;99.90;;;;;;4979111;28;20038;-66
2021/09/16 07:55:18;;;;;;;4.43;1.60;;;19.40;99.90;;;;;;4977898;28;20475;-66
2021/09/16 07:57:43;;;;;;;4.95;1.88;;;19.40;99.90;;;;;;4978997;28;20026;-66
2021/09/16 08:00:09;;;;;;;3.55;1.92;;;19.30;99.90;;;;;;4978778;28;20041;-66
2021/09/16 08:02:37;;;;;;;3.38;1.52;;;19.40;99.90;;;;;;4986290;28;20053;-66
2021/09/16 08:05:02;;;;;;;2.47;1.45;;;19.30;99.90;;;;;;4978385;28;20030;-66
2021/09/16 08:07:28;;;;;;;2.15;1.60;;;19.30;99.90;;;;;;4977711;28;20544;-66
2021/09/16 08:09:53;;;;;;;3.80;1.45;;;19.40;99.90;;;;;;4979507;28;20030;-66
2021/09/16 08:12:19;;;;;;;3.38;1.70;;;19.20;99.90;;;;;;4979446;28;20066;-66
2021/09/16 08:14:44;;;;;;;3.20;1.50;;;19.20;99.90;;;;;;4979238;28;20121;-66
2021/09/16 08:17:10;;;;;;;3.63;1.50;;;19.30;99.90;;;;;;4979432;28;20770;-65
2021/09/16 08:19:39;;;;;;;3.83;1.80;;;19.20;99.90;;;;;;4978899;28;20065;-65
2021/09/16 08:22:05;;;;;;;3.10;1.52;;;19.00;99.90;;;;;;4978389;28;20064;-64
2021/09/16 08:24:30;;;;;;;4.78;1.83;;;19.00;99.90;;;;;;4978687;28;20450;-64
2021/09/16 08:26:56;;;;;;;5.82;1.80;;;19.00;99.90;;;;;;4978444;28;20061;-64
2021/09/16 08:29:21;;;;;;;2.33;2.00;;;19.20;99.90;;;;;;4977192;28;20468;-64
2021/09/16 08:31:46;;;;;;;5.78;2.08;;;19.40;99.90;;;;;;4979227;28;20069;-64
2021/09/16 08:34:12;;;;;;;3.17;1.60;;;19.70;99.90;;;;;;4977766;28;20382;-63
2021/09/16 08:36:37;;;;;;;6.30;1.60;;;19.80;99.90;;;;;;4978832;28;20634;-63
2021/09/16 08:39:03;;;;;;;1.73;1.00;;;19.80;99.90;;;;;;4977958;28;20286;-63
2021/09/16 08:41:28;;;;;;;3.05;1.17;;;19.90;99.90;;;;;;4977261;28;20030;-63
2021/09/16 08:43:55;;;;;;;5.78;1.00;;;19.80;99.90;;;;;;4978503;28;20046;-63
2021/09/16 08:46:21;;;;;;;6.22;1.10;;;19.60;99.90;;;;;;4978011;28;20120;-63
2021/09/16 08:48:46;;;;;;;7.68;1.25;;;19.40;99.90;;;;;;4977889;28;20908;-63
2021/09/16 08:51:12;;;;;;;2.70;0.98;;;19.30;99.90;;;;;;4978994;28;20038;-63
2021/09/16 08:53:37;;;;;;;2.05;0.80;;;19.10;99.90;;;;;;4978065;28;20727;-63
2021/09/16 08:56:05;;;;;;;8.02;0.98;;;18.80;99.90;;;;;;4978181;28;20382;-63
2021/09/16 08:58:31;;;;;;;3.35;1.08;;;18.70;99.90;;;;;;4978473;28;20128;-63
2021/09/16 09:00:56;;;;;;;8.25;3.58;;;18.50;99.90;;;;;;4977486;28;20034;-64
2021/09/16 09:03:22;;;;;;;2.60;0.70;;;18.50;99.90;;;;;;4978851;28;20046;-63
2021/09/16 09:05:47;;;;;;;4.82;0.73;;;18.40;99.90;;;;;;4977524;28;20042;-63
2021/09/16 09:08:13;;;;;;;1.42;0.50;;;18.40;99.90;;;;;;4976690;28;20080;-63
2021/09/16 09:10:38;;;;;;;2.58;0.55;;;18.60;99.90;;;;;;4977867;28;20786;-63
2021/09/16 09:13:04;;;;;;;1.05;0.52;;;18.70;99.90;;;;;;4977573;28;20382;-63
2021/09/16 09:15:29;;;;;;;3.28;0.90;;;18.90;99.90;;;;;;4977754;28;20035;-63
2021/09/16 09:17:55;;;;;;;4.15;1.00;;;19.20;99.90;;;;;;4977718;28;20490;-64
2021/09/16 09:20:20;;;;;;;1.85;0.60;;;19.20;99.90;;;;;;4975277;28;20038;-63
2021/09/16 09:22:46;;;;;;;6.05;0.90;;;19.20;99.90;;;;;;4978259;28;20113;-64
2021/09/16 09:25:11;;;;;;;2.50;0.80;;;19.10;99.90;;;;;;4977953;28;20066;-63
2021/09/16 09:27:37;;;;;;;3.92;0.60;;;19.10;99.90;;;;;;4976572;28;20039;-63
2021/09/16 09:30:02;;;;;;;2.58;0.50;;;19.20;99.90;;;;;;4977623;28;20096;-63
2021/09/16 09:32:28;;;;;;;4.47;0.70;;;19.50;99.90;;;;;;4977686;28;20089;-63
2021/09/16 09:34:53;;;;;;;2.00;0.50;;;19.50;99.90;;;;;;4977694;28;20092;-63
2021/09/16 09:37:19;;;;;;;5.97;0.70;;;19.60;99.90;;;;;;4977417;28;20038;-63
2021/09/16 09:39:44;;;;;;;3.47;0.50;;;19.80;99.90;;;;;;4979015;28;20101;-63
2021/09/16 09:42:10;;;;;;;7.93;1.65;;;19.80;99.90;;;;;;4977312;28;20529;-63
2021/09/16 09:44:35;;;;;;;2.25;1.00;;;20.00;99.90;;;;;;4977708;28;20080;-63
2021/09/16 09:47:01;;;;;;;1.92;0.65;;;19.60;99.90;;;;;;4976983;28;20038;-63
2021/09/16 09:49:26;;;;;;;2.85;0.60;;;19.50;99.90;;;;;;4976166;28;20030;-63
2021/09/16 09:51:52;;;;;;;2.58;0.57;;;19.20;99.90;;;;;;4978674;28;20042;-63
2021/09/16 09:54:17;;;;;;;1.92;0.50;;;19.30;99.90;;;;;;4980846;28;20045;-63
2021/09/16 09:56:43;;;;;;;2.92;0.70;;;19.40;99.90;;;;;;4981014;28;20034;-63
2021/09/16 09:59:08;;;;;;;2.72;0.80;;;19.30;99.90;;;;;;4979026;28;20026;-64
2021/09/16 10:01:34;;;;;;;1.55;0.52;;;17.80;99.90;;;;;;4979680;28;20042;-63
2021/09/16 10:03:59;;;;;;;2.78;0.75;;;19.50;99.90;;;;;;4979721;28;20045;-63
2021/09/16 10:06:25;;;;;;;9.30;4.20;;;19.70;99.90;;;;;;4980812;28;20042;-63
2021/09/16 10:08:50;;;;;;;3.15;1.67;;;19.70;99.90;;;;;;4980972;28;20064;-63
2021/09/16 10:11:16;;;;;;;4.72;0.90;;;19.80;99.90;;;;;;4980708;28;20034;-63
2021/09/16 10:13:41;;;;;;;1.50;0.70;;;19.90;99.90;;;;;;4980436;28;20041;-64
2021/09/16 10:16:07;;;;;;;2.55;1.05;;;19.90;99.90;;;;;;4980753;28;20525;-63
2021/09/16 10:18:32;;;;;;;4.90;0.68;;;20.00;99.90;;;;;;4979100;28;20065;-64
2021/09/16 10:21:00;;;;;;;2.30;0.65;;;20.30;99.90;;;;;;4978964;28;20093;-64
2021/09/16 10:23:25;;;;;;;0.52;0.50;;;20.30;99.90;;;;;;4980816;28;20038;-64
2021/09/16 10:25:51;;;;;;;6.63;0.70;;;20.20;99.90;;;;;;4979977;28;20486;-64
2021/09/16 10:28:16;;;;;;;1.17;0.43;;;20.10;99.90;;;;;;4979501;28;20038;-63
2021/09/16 10:30:42;;;;;;;4.40;0.70;;;20.00;99.90;;;;;;4980514;28;20142;-63
2021/09/16 10:33:07;;;;;;;1.48;0.60;;;20.10;99.90;;;;;;4979784;28;20744;-63
2021/09/16 10:35:33;;;;;;;2.38;0.73;;;20.20;99.90;;;;;;4978985;28;20104;-64
2021/09/16 10:37:58;;;;;;;1.33;1.08;;;20.30;99.90;;;;;;4979393;28;20034;-63
2021/09/16 10:40:24;;;;;;;1.70;0.63;;;20.20;99.90;;;;;;4978723;28;20037;-64
2021/09/16 10:42:49;;;;;;;2.38;0.68;;;20.30;99.90;;;;;;4980238;28;20126;-63
2021/09/16 10:45:15;;;;;;;1.73;0.60;;;20.50;99.90;;;;;;4979810;28;20642;-64
2021/09/16 10:47:40;;;;;;;1.95;0.60;;;20.70;99.90;;;;;;4978886;28;20061;-63
2021/09/16 10:50:06;;;;;;;2.70;0.60;;;20.70;99.90;;;;;;4980832;28;20030;-63
2021/09/16 10:52:31;;;;;;;5.32;0.68;;;20.80;99.90;;;;;;4980930;28;20050;-64
2021/09/16 10:54:57;;;;;;;2.05;0.55;;;21.10;99.90;;;;;;4981311;28;20030;-63
2021/09/16 10:57:22;;;;;;;5.38;0.80;;;21.20;99.90;;;;;;4981990;28;20509;-64
2021/09/16 10:59:54;;;;;;;2.53;0.68;;;21.30;99.90;;;;;;4981413;28;20402;-63
2021/09/16 11:02:22;;;;;;;2.83;0.55;;;21.10;99.90;;;;;;4982059;28;20038;-63
2021/09/16 11:04:48;;;;;;;4.13;0.65;;;20.90;99.90;;;;;;4981690;28;20045;-64
2021/09/16 11:07:13;;;;;;;3.22;0.60;;;20.80;99.90;;;;;;4981357;28;20034;-63
2021/09/16 11:09:39;;;;;;;2.03;1.10;;;20.50;99.90;;;;;;4981159;28;20027;-63
2021/09/16 11:12:04;;;;;;;2.00;0.60;;;20.40;99.90;;;;;;4980945;28;20045;-64
2021/09/16 11:14:29;;;;;;;2.63;0.70;;;20.20;99.90;;;;;;4981691;28;20775;-63
2021/09/16 11:16:55;;;;;;;3.75;1.27;;;20.00;99.90;;;;;;4979545;28;20030;-63
2021/09/16 11:19:21;;;;;;;5.72;1.02;;;19.80;99.90;;;;;;4979482;28;20093;-63
2021/09/16 11:21:46;;;;;;;3.13;0.60;;;19.60;99.90;;;;;;4978912;28;20050;-63
2021/09/16 11:24:12;;;;;;;4.65;0.80;;;19.30;99.90;;;;;;4979475;28;20069;-63
2021/09/16 11:26:37;;;;;;;7.90;0.85;;;19.10;99.90;;;;;;4970032;28;20906;-63
2021/09/16 11:29:03;;;;;;;1.25;0.60;;;19.20;99.90;;;;;;4978902;28;20129;-63
2021/09/16 11:31:28;;;;;;;4.22;1.00;;;19.40;99.90;;;;;;4977463;28;20030;-63
2021/09/16 11:33:54;;;;;;;3.88;0.70;;;19.50;99.90;;;;;;4979797;28;20049;-63
2021/09/16 11:36:19;;;;;;;1.73;0.68;;;19.70;99.90;;;;;;4979707;28;20877;-64
2021/09/16 11:38:45;;;;;;;2.30;0.43;;;20.10;99.90;;;;;;4976825;28;20097;-63
2021/09/16 11:41:10;;;;;;;2.75;0.88;;;20.10;99.90;;;;;;4978822;28;20022;-63
2021/09/16 11:43:36;;;;;;;2.80;0.57;;;20.10;99.90;;;;;;4981037;28;20026;-63
2021/09/16 11:46:02;;;;;;;0.38;0.35;;;20.00;99.90;;;;;;4980036;28;20034;-63
2021/09/16 11:48:28;;;;;;;1.50;0.47;;;20.00;99.90;;;;;;4979170;28;20445;-66
2021/09/16 11:50:53;;;;;;;1.77;0.50;;;20.40;99.90;;;;;;4978340;28;20030;-66
2021/09/16 11:53:21;;;;;;;1.20;0.50;;;20.70;99.90;;;;;;4979589;28;20131;-66
2021/09/16 11:55:46;;;;;;;0.95;0.30;;;20.70;99.90;;;;;;4978635;28;20034;-66
2021/09/16 11:58:12;;;;;;;1.80;0.45;;;20.60;99.90;;;;;;4978935;28;20033;-66
2021/09/16 12:00:38;;;;;;;4.55;1.33;;;20.60;99.90;;;;;;4976315;28;20031;-65
2021/09/16 12:03:04;;;;;;;4.47;0.60;;;20.50;99.90;;;;;;4978379;28;20042;-65
2021/09/16 12:05:29;;;;;;;1.15;0.50;;;20.40;99.90;;;;;;4977669;28;20157;-65
2021/09/16 12:07:55;;;;;;;2.70;0.63;;;20.50;99.90;;;;;;4979450;28;20038;-66
2021/09/16 12:10:20;;;;;;;0.85;0.43;;;20.60;99.90;;;;;;4978871;28;20494;-65
2021/09/16 12:12:46;;;;;;;2.03;1.15;;;20.60;99.90;;;;;;4978749;28;20034;-65
2021/09/16 12:15:11;;;;;;;3.08;1.55;;;20.40;99.90;;;;;;4974498;28;20113;-66
2021/09/16 12:17:37;;;;;;;2.67;1.27;;;20.50;99.90;;;;;;4978486;28;20148;-65
2021/09/16 12:20:02;;;;;;;1.83;0.65;;;20.50;99.90;;;;;;4977180;28;20030;-65
2021/09/16 12:22:28;;;;;;;2.08;0.47;;;20.60;99.90;;;;;;4977932;28;20931;-65
2021/09/16 12:24:53;;;;;;;2.25;1.05;;;20.80;99.90;;;;;;4973426;28;20034;-65
2021/09/16 12:27:19;;;;;;;2.78;0.60;;;20.90;99.90;;;;;;4976668;28;20054;-65
2021/09/16 12:29:44;;;;;;;1.98;0.40;;;21.20;99.00;;;;;;4978350;28;20042;-65
2021/09/16 12:32:10;;;;;;;0.80;0.50;;;21.60;99.60;;;;;;4978047;28;20034;-66